sensor_id;sensor_type;location;lat;lon;timestamp;temperature;humidity
48515;DHT22;34309;47.260;2.796;2023-12-20T00:02:05;17.70;21.50
48515;DHT22;34309;47.260;2.796;2023-12-20T00:04:41;17.80;21.50
48515;DHT22;34309;47.260;2.796;2023-12-20T00:07:17;17.70;21.40
48515;DHT22;34309;47.260;2.796;2023-12-20T00:09:52;17.70;21.40
48515;DHT22;34309;47.260;2.796;2023-12-20T00:12:26;17.70;21.40
48515;DHT22;34309;47.260;2.796;2023-12-20T00:15:00;17.80;21.50
48515;DHT22;34309;47.260;2.796;2023-12-20T00:17:34;17.70;21.40
48515;DHT22;34309;47.260;2.796;2023-12-20T00:20:09;17.70;21.50
48515;DHT22;34309;47.260;2.796;2023-12-20T00:22:44;17.70;21.60
48515;DHT22;34309;47.260;2.796;2023-12-20T00:25:18;17.70;21.60
48515;DHT22;34309;47.260;2.796;2023-12-20T00:27:52;17.70;21.60
48515;DHT22;34309;47.260;2.796;2023-12-20T00:30:26;17.70;21.50
48515;DHT22;34309;47.260;2.796;2023-12-20T00:33:01;17.60;21.70
48515;DHT22;34309;47.260;2.796;2023-12-20T00:35:35;17.60;21.50
48515;DHT22;34309;47.260;2.796;2023-12-20T00:38:11;17.60;21.60
48515;DHT22;34309;47.260;2.796;2023-12-20T00:40:45;17.60;21.60
48515;DHT22;34309;47.260;2.796;2023-12-20T00:43:19;17.70;21.60
48515;DHT22;34309;47.260;2.796;2023-12-20T00:45:52;17.60;21.70
48515;DHT22;34309;47.260;2.796;2023-12-20T00:48:27;17.60;21.70
48515;DHT22;34309;47.260;2.796;2023-12-20T00:51:02;17.60;21.60
48515;DHT22;34309;47.260;2.796;2023-12-20T00:53:38;17.60;21.60
48515;DHT22;34309;47.260;2.796;2023-12-20T00:56:12;17.60;21.50
48515;DHT22;34309;47.260;2.796;2023-12-20T00:58:47;17.60;21.60
48515;DHT22;34309;47.260;2.796;2023-12-20T01:01:22;17.60;21.70
48515;DHT22;34309;47.260;2.796;2023-12-20T01:03:56;17.60;21.60
48515;DHT22;34309;47.260;2.796;2023-12-20T01:06:30;17.60;21.70
48515;DHT22;34309;47.260;2.796;2023-12-20T01:09:05;17.60;21.60
48515;DHT22;34309;47.260;2.796;2023-12-20T01:11:39;17.60;21.70
48515;DHT22;34309;47.260;2.796;2023-12-20T01:14:13;17.60;21.70
48515;DHT22;34309;47.260;2.796;2023-12-20T01:16:47;17.50;21.70
48515;DHT22;34309;47.260;2.796;2023-12-20T01:19:21;17.60;21.70
48515;DHT22;34309;47.260;2.796;2023-12-20T01:21:56;17.60;21.70
48515;DHT22;34309;47.260;2.796;2023-12-20T01:24:34;17.60;21.70
48515;DHT22;34309;47.260;2.796;2023-12-20T01:27:09;17.60;21.70
48515;DHT22;34309;47.260;2.796;2023-12-20T01:29:42;17.50;21.60
48515;DHT22;34309;47.260;2.796;2023-12-20T01:32:16;17.50;21.70
48515;DHT22;34309;47.260;2.796;2023-12-20T01:34:51;17.50;21.70
48515;DHT22;34309;47.260;2.796;2023-12-20T01:37:24;17.50;21.70
48515;DHT22;34309;47.260;2.796;2023-12-20T01:40:00;17.50;21.70
48515;DHT22;34309;47.260;2.796;2023-12-20T01:42:34;17.50;21.70
48515;DHT22;34309;47.260;2.796;2023-12-20T01:45:09;17.50;21.80
48515;DHT22;34309;47.260;2.796;2023-12-20T01:47:43;17.50;21.80
48515;DHT22;34309;47.260;2.796;2023-12-20T01:50:17;17.50;21.90
48515;DHT22;34309;47.260;2.796;2023-12-20T01:52:52;17.50;21.90
48515;DHT22;34309;47.260;2.796;2023-12-20T01:55:33;17.50;21.80
48515;DHT22;34309;47.260;2.796;2023-12-20T01:58:12;17.50;21.90
48515;DHT22;34309;47.260;2.796;2023-12-20T02:00:46;17.50;21.90
48515;DHT22;34309;47.260;2.796;2023-12-20T02:03:21;17.40;21.80
48515;DHT22;34309;47.260;2.796;2023-12-20T02:05:55;17.50;21.90
48515;DHT22;34309;47.260;2.796;2023-12-20T02:08:32;17.40;21.90
48515;DHT22;34309;47.260;2.796;2023-12-20T02:11:03;17.50;21.90
48515;DHT22;34309;47.260;2.796;2023-12-20T02:13:37;17.50;21.90
48515;DHT22;34309;47.260;2.796;2023-12-20T02:16:11;17.40;21.90
48515;DHT22;34309;47.260;2.796;2023-12-20T02:18:45;17.40;22.00
48515;DHT22;34309;47.260;2.796;2023-12-20T02:21:25;17.40;21.90
48515;DHT22;34309;47.260;2.796;2023-12-20T02:23:59;17.40;21.90
48515;DHT22;34309;47.260;2.796;2023-12-20T02:26:35;17.40;21.90
48515;DHT22;34309;47.260;2.796;2023-12-20T02:29:09;17.40;22.00
48515;DHT22;34309;47.260;2.796;2023-12-20T02:31:38;17.40;22.00
48515;DHT22;34309;47.260;2.796;2023-12-20T02:34:12;17.40;22.00
48515;DHT22;34309;47.260;2.796;2023-12-20T02:36:47;17.40;21.90
48515;DHT22;34309;47.260;2.796;2023-12-20T02:39:21;17.40;22.00
48515;DHT22;34309;47.260;2.796;2023-12-20T02:41:55;17.40;21.90
48515;DHT22;34309;47.260;2.796;2023-12-20T02:44:29;17.40;22.00
48515;DHT22;34309;47.260;2.796;2023-12-20T02:47:03;17.40;22.00
48515;DHT22;34309;47.260;2.796;2023-12-20T02:49:37;17.40;22.00
48515;DHT22;34309;47.260;2.796;2023-12-20T02:52:12;17.40;22.00
48515;DHT22;34309;47.260;2.796;2023-12-20T02:54:46;17.30;22.00
48515;DHT22;34309;47.260;2.796;2023-12-20T02:57:20;17.40;22.60
48515;DHT22;34309;47.260;2.796;2023-12-20T02:59:54;17.40;22.00
48515;DHT22;34309;47.260;2.796;2023-12-20T03:02:23;17.40;22.10
48515;DHT22;34309;47.260;2.796;2023-12-20T03:04:57;17.40;22.10
48515;DHT22;34309;47.260;2.796;2023-12-20T03:07:33;17.40;22.10
48515;DHT22;34309;47.260;2.796;2023-12-20T03:10:07;17.40;22.10
48515;DHT22;34309;47.260;2.796;2023-12-20T03:12:41;17.30;22.00
48515;DHT22;34309;47.260;2.796;2023-12-20T03:15:15;17.30;21.90
48515;DHT22;34309;47.260;2.796;2023-12-20T03:17:49;17.40;22.10
48515;DHT22;34309;47.260;2.796;2023-12-20T03:20:24;17.30;22.00
48515;DHT22;34309;47.260;2.796;2023-12-20T03:23:00;17.30;22.00
48515;DHT22;34309;47.260;2.796;2023-12-20T03:25:33;17.30;22.00
48515;DHT22;34309;47.260;2.796;2023-12-20T03:28:07;17.30;22.00
48515;DHT22;34309;47.260;2.796;2023-12-20T03:30:41;17.30;22.00
48515;DHT22;34309;47.260;2.796;2023-12-20T03:33:15;17.30;21.90
48515;DHT22;34309;47.260;2.796;2023-12-20T03:35:49;17.30;22.00
48515;DHT22;34309;47.260;2.796;2023-12-20T03:38:24;17.30;21.90
48515;DHT22;34309;47.260;2.796;2023-12-20T03:40:58;17.30;22.10
48515;DHT22;34309;47.260;2.796;2023-12-20T03:43:32;17.30;21.90
48515;DHT22;34309;47.260;2.796;2023-12-20T03:46:08;17.30;21.90
48515;DHT22;34309;47.260;2.796;2023-12-20T03:48:41;17.30;21.90
48515;DHT22;34309;47.260;2.796;2023-12-20T03:51:15;17.30;22.00
48515;DHT22;34309;47.260;2.796;2023-12-20T03:53:50;17.30;21.90
48515;DHT22;34309;47.260;2.796;2023-12-20T03:56:24;17.30;21.90
48515;DHT22;34309;47.260;2.796;2023-12-20T03:58:57;17.30;22.00
48515;DHT22;34309;47.260;2.796;2023-12-20T04:01:31;17.30;21.90
48515;DHT22;34309;47.260;2.796;2023-12-20T04:04:05;17.20;21.90
48515;DHT22;34309;47.260;2.796;2023-12-20T04:06:39;17.20;21.90
48515;DHT22;34309;47.260;2.796;2023-12-20T04:09:14;17.30;22.10
48515;DHT22;34309;47.260;2.796;2023-12-20T04:11:48;17.20;21.90
48515;DHT22;34309;47.260;2.796;2023-12-20T04:14:22;17.20;22.00
48515;DHT22;34309;47.260;2.796;2023-12-20T04:16:57;17.30;22.00
48515;DHT22;34309;47.260;2.796;2023-12-20T04:19:30;17.20;21.90
48515;DHT22;34309;47.260;2.796;2023-12-20T04:22:07;17.20;22.00
48515;DHT22;34309;47.260;2.796;2023-12-20T04:24:42;17.20;22.00
48515;DHT22;34309;47.260;2.796;2023-12-20T04:27:16;17.20;22.00
48515;DHT22;34309;47.260;2.796;2023-12-20T04:29:49;17.20;22.00
48515;DHT22;34309;47.260;2.796;2023-12-20T04:32:23;17.20;22.00
48515;DHT22;34309;47.260;2.796;2023-12-20T04:34:56;17.20;22.00
48515;DHT22;34309;47.260;2.796;2023-12-20T04:37:30;17.20;22.00
48515;DHT22;34309;47.260;2.796;2023-12-20T04:40:07;17.20;22.00
48515;DHT22;34309;47.260;2.796;2023-12-20T04:42:40;17.20;22.10
48515;DHT22;34309;47.260;2.796;2023-12-20T04:45:18;17.20;22.00
48515;DHT22;34309;47.260;2.796;2023-12-20T04:47:53;17.10;22.10
48515;DHT22;34309;47.260;2.796;2023-12-20T04:50:29;17.20;22.10
48515;DHT22;34309;47.260;2.796;2023-12-20T04:53:03;17.10;22.00
48515;DHT22;34309;47.260;2.796;2023-12-20T04:55:38;17.20;22.20
48515;DHT22;34309;47.260;2.796;2023-12-20T04:58:12;17.10;22.00
48515;DHT22;34309;47.260;2.796;2023-12-20T05:00:46;17.10;22.00
48515;DHT22;34309;47.260;2.796;2023-12-20T05:03:20;17.10;21.90
48515;DHT22;34309;47.260;2.796;2023-12-20T05:05:54;17.10;22.00
48515;DHT22;34309;47.260;2.796;2023-12-20T05:08:28;17.10;21.90
48515;DHT22;34309;47.260;2.796;2023-12-20T05:11:03;17.10;21.90
48515;DHT22;34309;47.260;2.796;2023-12-20T05:13:37;17.10;21.90
48515;DHT22;34309;47.260;2.796;2023-12-20T05:16:11;17.10;21.80
48515;DHT22;34309;47.260;2.796;2023-12-20T05:18:47;17.10;21.90
48515;DHT22;34309;47.260;2.796;2023-12-20T05:21:22;17.10;21.80
48515;DHT22;34309;47.260;2.796;2023-12-20T05:23:55;17.10;22.00
48515;DHT22;34309;47.260;2.796;2023-12-20T05:26:31;17.10;22.00
48515;DHT22;34309;47.260;2.796;2023-12-20T05:29:05;17.10;21.90
48515;DHT22;34309;47.260;2.796;2023-12-20T05:31:38;17.10;21.90
48515;DHT22;34309;47.260;2.796;2023-12-20T05:34:12;17.10;21.80
48515;DHT22;34309;47.260;2.796;2023-12-20T05:36:46;17.10;21.90
48515;DHT22;34309;47.260;2.796;2023-12-20T05:39:20;17.10;22.00
48515;DHT22;34309;47.260;2.796;2023-12-20T05:41:55;17.10;21.80
48515;DHT22;34309;47.260;2.796;2023-12-20T05:44:29;17.10;21.90
48515;DHT22;34309;47.260;2.796;2023-12-20T05:47:03;17.10;21.90
48515;DHT22;34309;47.260;2.796;2023-12-20T05:49:37;17.10;21.90
48515;DHT22;34309;47.260;2.796;2023-12-20T05:52:11;17.10;22.00
48515;DHT22;34309;47.260;2.796;2023-12-20T05:54:45;17.10;21.90
48515;DHT22;34309;47.260;2.796;2023-12-20T05:57:22;17.00;21.80
48515;DHT22;34309;47.260;2.796;2023-12-20T05:59:58;17.00;21.90
48515;DHT22;34309;47.260;2.796;2023-12-20T06:02:31;17.00;21.80
48515;DHT22;34309;47.260;2.796;2023-12-20T06:05:06;17.00;21.80
48515;DHT22;34309;47.260;2.796;2023-12-20T06:07:40;17.00;21.70
48515;DHT22;34309;47.260;2.796;2023-12-20T06:10:14;17.00;21.70
48515;DHT22;34309;47.260;2.796;2023-12-20T06:12:49;17.00;21.70
48515;DHT22;34309;47.260;2.796;2023-12-20T06:15:23;17.00;21.70
48515;DHT22;34309;47.260;2.796;2023-12-20T06:17:57;17.00;21.70
48515;DHT22;34309;47.260;2.796;2023-12-20T06:20:31;17.00;21.80
48515;DHT22;34309;47.260;2.796;2023-12-20T06:23:05;17.00;21.80
48515;DHT22;34309;47.260;2.796;2023-12-20T06:25:39;16.90;21.80
48515;DHT22;34309;47.260;2.796;2023-12-20T06:28:15;16.90;21.90
48515;DHT22;34309;47.260;2.796;2023-12-20T06:30:48;16.90;21.80
48515;DHT22;34309;47.260;2.796;2023-12-20T06:33:19;16.90;21.80
48515;DHT22;34309;47.260;2.796;2023-12-20T06:35:53;16.90;21.80
48515;DHT22;34309;47.260;2.796;2023-12-20T06:38:27;16.90;21.80
48515;DHT22;34309;47.260;2.796;2023-12-20T06:41:01;16.90;21.80
48515;DHT22;34309;47.260;2.796;2023-12-20T06:43:36;16.90;21.80
48515;DHT22;34309;47.260;2.796;2023-12-20T06:46:10;16.90;21.80
48515;DHT22;34309;47.260;2.796;2023-12-20T06:48:46;17.00;21.70
48515;DHT22;34309;47.260;2.796;2023-12-20T06:51:19;17.00;21.70
48515;DHT22;34309;47.260;2.796;2023-12-20T06:53:53;17.10;21.80
48515;DHT22;34309;47.260;2.796;2023-12-20T06:56:27;17.10;21.70
48515;DHT22;34309;47.260;2.796;2023-12-20T06:59:02;17.20;21.70
48515;DHT22;34309;47.260;2.796;2023-12-20T07:01:35;17.20;21.60
48515;DHT22;34309;47.260;2.796;2023-12-20T07:04:08;17.30;21.60
48515;DHT22;34309;47.260;2.796;2023-12-20T07:06:43;17.30;21.50
48515;DHT22;34309;47.260;2.796;2023-12-20T07:09:17;17.30;21.50
48515;DHT22;34309;47.260;2.796;2023-12-20T07:11:51;17.30;21.50
48515;DHT22;34309;47.260;2.796;2023-12-20T07:14:26;17.30;21.50
48515;DHT22;34309;47.260;2.796;2023-12-20T07:17:01;17.30;21.40
48515;DHT22;34309;47.260;2.796;2023-12-20T07:19:35;17.40;21.40
48515;DHT22;34309;47.260;2.796;2023-12-20T07:22:09;17.40;21.20
48515;DHT22;34309;47.260;2.796;2023-12-20T07:24:43;17.40;21.40
48515;DHT22;34309;47.260;2.796;2023-12-20T07:27:17;17.40;21.20
48515;DHT22;34309;47.260;2.796;2023-12-20T07:29:52;17.40;21.20
48515;DHT22;34309;47.260;2.796;2023-12-20T07:32:26;17.40;21.30
48515;DHT22;34309;47.260;2.796;2023-12-20T07:35:02;17.40;21.10
48515;DHT22;34309;47.260;2.796;2023-12-20T07:37:36;17.40;21.00
48515;DHT22;34309;47.260;2.796;2023-12-20T07:40:11;17.40;21.00
48515;DHT22;34309;47.260;2.796;2023-12-20T07:42:44;17.40;21.50
48515;DHT22;34309;47.260;2.796;2023-12-20T07:45:20;17.50;21.10
48515;DHT22;34309;47.260;2.796;2023-12-20T07:47:54;17.40;21.10
48515;DHT22;34309;47.260;2.796;2023-12-20T07:50:27;17.50;21.10
48515;DHT22;34309;47.260;2.796;2023-12-20T07:53:02;17.50;21.20
48515;DHT22;34309;47.260;2.796;2023-12-20T07:55:36;17.50;21.00
48515;DHT22;34309;47.260;2.796;2023-12-20T07:58:10;17.40;21.00
48515;DHT22;34309;47.260;2.796;2023-12-20T08:00:45;17.40;21.00
48515;DHT22;34309;47.260;2.796;2023-12-20T08:03:19;17.40;21.10
48515;DHT22;34309;47.260;2.796;2023-12-20T08:05:54;17.40;21.00
48515;DHT22;34309;47.260;2.796;2023-12-20T08:08:28;17.40;21.00
48515;DHT22;34309;47.260;2.796;2023-12-20T08:11:03;17.30;21.40
48515;DHT22;34309;47.260;2.796;2023-12-20T08:13:36;17.30;20.80
48515;DHT22;34309;47.260;2.796;2023-12-20T08:16:11;17.40;20.90
48515;DHT22;34309;47.260;2.796;2023-12-20T08:18:47;17.30;20.90
48515;DHT22;34309;47.260;2.796;2023-12-20T08:21:21;17.30;20.80
48515;DHT22;34309;47.260;2.796;2023-12-20T08:23:55;17.30;20.80
48515;DHT22;34309;47.260;2.796;2023-12-20T08:26:29;17.30;20.90
48515;DHT22;34309;47.260;2.796;2023-12-20T08:29:03;17.30;21.00
48515;DHT22;34309;47.260;2.796;2023-12-20T08:31:38;17.20;20.90
48515;DHT22;34309;47.260;2.796;2023-12-20T08:34:12;17.20;20.80
48515;DHT22;34309;47.260;2.796;2023-12-20T08:36:47;17.20;20.80
48515;DHT22;34309;47.260;2.796;2023-12-20T08:39:21;17.20;20.90
48515;DHT22;34309;47.260;2.796;2023-12-20T08:41:55;17.20;20.90
48515;DHT22;34309;47.260;2.796;2023-12-20T08:44:28;17.20;20.90
48515;DHT22;34309;47.260;2.796;2023-12-20T08:47:04;17.20;20.90
48515;DHT22;34309;47.260;2.796;2023-12-20T08:49:38;17.20;21.00
48515;DHT22;34309;47.260;2.796;2023-12-20T08:52:11;17.20;21.00
48515;DHT22;34309;47.260;2.796;2023-12-20T08:54:46;17.10;20.90
48515;DHT22;34309;47.260;2.796;2023-12-20T08:57:22;17.10;21.00
48515;DHT22;34309;47.260;2.796;2023-12-20T08:59:56;17.10;21.00
48515;DHT22;34309;47.260;2.796;2023-12-20T09:02:26;17.00;21.10
48515;DHT22;34309;47.260;2.796;2023-12-20T09:05:01;17.00;20.90
48515;DHT22;34309;47.260;2.796;2023-12-20T09:07:34;17.00;21.00
48515;DHT22;34309;47.260;2.796;2023-12-20T09:10:08;17.00;21.10
48515;DHT22;34309;47.260;2.796;2023-12-20T09:12:42;17.00;21.00
48515;DHT22;34309;47.260;2.796;2023-12-20T09:15:16;16.90;21.10
48515;DHT22;34309;47.260;2.796;2023-12-20T09:17:51;16.90;21.10
48515;DHT22;34309;47.260;2.796;2023-12-20T09:20:24;16.90;21.20
48515;DHT22;34309;47.260;2.796;2023-12-20T09:22:59;16.90;21.20
48515;DHT22;34309;47.260;2.796;2023-12-20T09:25:33;16.90;21.30
48515;DHT22;34309;47.260;2.796;2023-12-20T09:28:07;16.80;21.30
48515;DHT22;34309;47.260;2.796;2023-12-20T09:30:42;16.90;21.40
48515;DHT22;34309;47.260;2.796;2023-12-20T09:33:19;16.80;21.40
48515;DHT22;34309;47.260;2.796;2023-12-20T09:35:53;16.80;21.30
48515;DHT22;34309;47.260;2.796;2023-12-20T09:38:27;16.80;21.50
48515;DHT22;34309;47.260;2.796;2023-12-20T09:41:01;16.80;21.50
48515;DHT22;34309;47.260;2.796;2023-12-20T09:43:38;16.80;21.40
48515;DHT22;34309;47.260;2.796;2023-12-20T09:46:12;16.70;21.40
48515;DHT22;34309;47.260;2.796;2023-12-20T09:48:51;16.70;21.50
48515;DHT22;34309;47.260;2.796;2023-12-20T09:51:25;16.70;21.50
48515;DHT22;34309;47.260;2.796;2023-12-20T09:54:01;16.70;21.50
48515;DHT22;34309;47.260;2.796;2023-12-20T09:56:37;16.70;21.60
48515;DHT22;34309;47.260;2.796;2023-12-20T09:59:11;16.70;21.80
48515;DHT22;34309;47.260;2.796;2023-12-20T10:01:45;16.70;21.70
48515;DHT22;34309;47.260;2.796;2023-12-20T10:04:20;16.70;21.50
48515;DHT22;34309;47.260;2.796;2023-12-20T10:06:54;16.70;21.60
48515;DHT22;34309;47.260;2.796;2023-12-20T10:09:29;16.70;21.60
48515;DHT22;34309;47.260;2.796;2023-12-20T10:12:05;16.70;21.70
48515;DHT22;34309;47.260;2.796;2023-12-20T10:14:39;16.70;21.80
48515;DHT22;34309;47.260;2.796;2023-12-20T10:17:13;16.70;21.70
48515;DHT22;34309;47.260;2.796;2023-12-20T10:19:49;16.70;21.80
48515;DHT22;34309;47.260;2.796;2023-12-20T10:22:23;16.60;21.80
48515;DHT22;34309;47.260;2.796;2023-12-20T10:24:52;16.60;21.80
48515;DHT22;34309;47.260;2.796;2023-12-20T10:27:26;16.60;21.80
48515;DHT22;34309;47.260;2.796;2023-12-20T10:30:00;16.60;21.70
48515;DHT22;34309;47.260;2.796;2023-12-20T10:32:34;16.60;21.80
48515;DHT22;34309;47.260;2.796;2023-12-20T10:35:10;16.60;21.90
48515;DHT22;34309;47.260;2.796;2023-12-20T10:37:44;16.60;21.90
48515;DHT22;34309;47.260;2.796;2023-12-20T10:40:18;16.60;21.90
48515;DHT22;34309;47.260;2.796;2023-12-20T10:42:53;16.60;22.00
48515;DHT22;34309;47.260;2.796;2023-12-20T10:45:27;16.60;21.90
48515;DHT22;34309;47.260;2.796;2023-12-20T10:48:02;16.60;22.00
48515;DHT22;34309;47.260;2.796;2023-12-20T10:50:38;16.60;22.00
48515;DHT22;34309;47.260;2.796;2023-12-20T10:53:07;16.60;22.00
48515;DHT22;34309;47.260;2.796;2023-12-20T10:55:43;16.60;22.00
48515;DHT22;34309;47.260;2.796;2023-12-20T10:58:20;16.60;22.10
48515;DHT22;34309;47.260;2.796;2023-12-20T11:00:59;16.50;22.00
48515;DHT22;34309;47.260;2.796;2023-12-20T11:03:35;16.60;22.20
48515;DHT22;34309;47.260;2.796;2023-12-20T11:06:29;16.60;22.20
48515;DHT22;34309;47.260;2.796;2023-12-20T11:09:13;16.60;22.20
48515;DHT22;34309;47.260;2.796;2023-12-20T11:12:01;16.60;22.20
48515;DHT22;34309;47.260;2.796;2023-12-20T11:14:41;16.60;22.30
48515;DHT22;34309;47.260;2.796;2023-12-20T11:17:16;16.60;22.40
48515;DHT22;34309;47.260;2.796;2023-12-20T11:20:06;16.60;22.30
48515;DHT22;34309;47.260;2.796;2023-12-20T11:22:52;16.60;22.40
48515;DHT22;34309;47.260;2.796;2023-12-20T11:25:27;16.60;22.30
48515;DHT22;34309;47.260;2.796;2023-12-20T11:28:10;16.60;22.40
48515;DHT22;34309;47.260;2.796;2023-12-20T11:30:50;16.60;22.40
48515;DHT22;34309;47.260;2.796;2023-12-20T11:33:26;16.60;22.50
48515;DHT22;34309;47.260;2.796;2023-12-20T11:36:00;16.60;22.50
48515;DHT22;34309;47.260;2.796;2023-12-20T11:38:37;16.60;22.50
48515;DHT22;34309;47.260;2.796;2023-12-20T11:41:11;16.60;22.50
48515;DHT22;34309;47.260;2.796;2023-12-20T11:43:46;16.60;22.50
48515;DHT22;34309;47.260;2.796;2023-12-20T11:46:20;16.60;22.60
48515;DHT22;34309;47.260;2.796;2023-12-20T11:48:55;16.60;22.50
48515;DHT22;34309;47.260;2.796;2023-12-20T11:51:29;16.60;22.60
48515;DHT22;34309;47.260;2.796;2023-12-20T11:54:05;16.60;22.50
48515;DHT22;34309;47.260;2.796;2023-12-20T11:56:39;16.60;22.60
48515;DHT22;34309;47.260;2.796;2023-12-20T11:59:13;16.60;22.60
48515;DHT22;34309;47.260;2.796;2023-12-20T12:01:51;16.60;22.60
48515;DHT22;34309;47.260;2.796;2023-12-20T12:04:25;16.60;22.50
48515;DHT22;34309;47.260;2.796;2023-12-20T12:07:00;16.60;22.60
48515;DHT22;34309;47.260;2.796;2023-12-20T12:09:35;16.60;22.60
48515;DHT22;34309;47.260;2.796;2023-12-20T12:12:10;16.60;22.60
48515;DHT22;34309;47.260;2.796;2023-12-20T12:14:44;16.60;22.60
48515;DHT22;34309;47.260;2.796;2023-12-20T12:17:18;16.60;22.60
48515;DHT22;34309;47.260;2.796;2023-12-20T12:20:02;16.50;22.60
48515;DHT22;34309;47.260;2.796;2023-12-20T12:22:36;16.50;22.50
48515;DHT22;34309;47.260;2.796;2023-12-20T12:25:13;16.50;22.50
48515;DHT22;34309;47.260;2.796;2023-12-20T12:27:47;16.60;22.70
48515;DHT22;34309;47.260;2.796;2023-12-20T12:30:21;16.60;22.70
48515;DHT22;34309;47.260;2.796;2023-12-20T12:32:57;16.60;22.80
48515;DHT22;34309;47.260;2.796;2023-12-20T12:35:32;16.50;22.70
48515;DHT22;34309;47.260;2.796;2023-12-20T12:38:07;16.50;22.70
48515;DHT22;34309;47.260;2.796;2023-12-20T12:40:43;16.60;22.80
48515;DHT22;34309;47.260;2.796;2023-12-20T12:43:17;16.50;22.50
48515;DHT22;34309;47.260;2.796;2023-12-20T12:45:52;16.50;22.70
48515;DHT22;34309;47.260;2.796;2023-12-20T12:48:28;16.50;22.80
48515;DHT22;34309;47.260;2.796;2023-12-20T12:51:03;16.50;22.70
48515;DHT22;34309;47.260;2.796;2023-12-20T12:53:37;16.50;22.90
48515;DHT22;34309;47.260;2.796;2023-12-20T12:56:14;16.50;22.90
48515;DHT22;34309;47.260;2.796;2023-12-20T12:58:49;16.50;22.80
48515;DHT22;34309;47.260;2.796;2023-12-20T13:01:23;16.50;22.70
48515;DHT22;34309;47.260;2.796;2023-12-20T13:03:57;16.50;22.90
48515;DHT22;34309;47.260;2.796;2023-12-20T13:06:31;16.50;22.90
48515;DHT22;34309;47.260;2.796;2023-12-20T13:09:05;16.50;23.00
48515;DHT22;34309;47.260;2.796;2023-12-20T13:11:43;16.50;22.80
48515;DHT22;34309;47.260;2.796;2023-12-20T13:14:18;16.60;22.70
48515;DHT22;34309;47.260;2.796;2023-12-20T13:16:52;16.60;22.70
48515;DHT22;34309;47.260;2.796;2023-12-20T13:19:26;16.60;22.80
48515;DHT22;34309;47.260;2.796;2023-12-20T13:22:00;16.70;22.80
48515;DHT22;34309;47.260;2.796;2023-12-20T13:24:35;16.70;22.60
48515;DHT22;34309;47.260;2.796;2023-12-20T13:27:12;16.80;22.70
48515;DHT22;34309;47.260;2.796;2023-12-20T13:29:46;16.90;22.50
48515;DHT22;34309;47.260;2.796;2023-12-20T13:32:20;16.90;22.50
48515;DHT22;34309;47.260;2.796;2023-12-20T13:34:53;17.00;22.50
48515;DHT22;34309;47.260;2.796;2023-12-20T13:37:28;17.00;22.50
48515;DHT22;34309;47.260;2.796;2023-12-20T13:40:02;17.00;22.50
48515;DHT22;34309;47.260;2.796;2023-12-20T13:42:38;17.00;22.40
48515;DHT22;34309;47.260;2.796;2023-12-20T13:45:13;17.10;22.30
48515;DHT22;34309;47.260;2.796;2023-12-20T13:47:46;17.10;22.30
48515;DHT22;34309;47.260;2.796;2023-12-20T13:50:22;17.10;22.10
48515;DHT22;34309;47.260;2.796;2023-12-20T13:52:56;17.20;22.10
48515;DHT22;34309;47.260;2.796;2023-12-20T13:55:30;17.20;22.20
48515;DHT22;34309;47.260;2.796;2023-12-20T13:58:05;17.20;22.00
48515;DHT22;34309;47.260;2.796;2023-12-20T14:00:40;17.20;22.00
48515;DHT22;34309;47.260;2.796;2023-12-20T14:03:14;17.30;22.10
48515;DHT22;34309;47.260;2.796;2023-12-20T14:05:50;17.20;22.00
48515;DHT22;34309;47.260;2.796;2023-12-20T14:08:25;17.30;22.00
48515;DHT22;34309;47.260;2.796;2023-12-20T14:11:00;17.30;22.10
48515;DHT22;34309;47.260;2.796;2023-12-20T14:13:36;17.30;22.10
48515;DHT22;34309;47.260;2.796;2023-12-20T14:16:09;17.30;22.00
48515;DHT22;34309;47.260;2.796;2023-12-20T14:18:43;17.30;21.90
48515;DHT22;34309;47.260;2.796;2023-12-20T14:21:17;17.30;21.90
48515;DHT22;34309;47.260;2.796;2023-12-20T14:23:52;17.30;22.00
48515;DHT22;34309;47.260;2.796;2023-12-20T14:26:26;17.30;22.00
48515;DHT22;34309;47.260;2.796;2023-12-20T14:29:02;17.30;22.00
48515;DHT22;34309;47.260;2.796;2023-12-20T14:31:37;17.30;22.10
48515;DHT22;34309;47.260;2.796;2023-12-20T14:34:12;17.30;21.90
48515;DHT22;34309;47.260;2.796;2023-12-20T14:36:47;17.30;21.90
48515;DHT22;34309;47.260;2.796;2023-12-20T14:39:21;17.30;21.90
48515;DHT22;34309;47.260;2.796;2023-12-20T14:41:55;17.30;21.90
48515;DHT22;34309;47.260;2.796;2023-12-20T14:44:30;17.30;22.00
48515;DHT22;34309;47.260;2.796;2023-12-20T14:47:05;17.30;21.90
48515;DHT22;34309;47.260;2.796;2023-12-20T14:49:39;17.30;22.00
48515;DHT22;34309;47.260;2.796;2023-12-20T14:52:13;17.20;22.00
48515;DHT22;34309;47.260;2.796;2023-12-20T14:54:47;17.20;22.00
48515;DHT22;34309;47.260;2.796;2023-12-20T14:57:21;17.30;22.00
48515;DHT22;34309;47.260;2.796;2023-12-20T14:59:56;17.20;21.90
48515;DHT22;34309;47.260;2.796;2023-12-20T15:02:30;17.20;21.80
48515;DHT22;34309;47.260;2.796;2023-12-20T15:05:05;17.20;21.90
48515;DHT22;34309;47.260;2.796;2023-12-20T15:07:39;17.30;21.90
48515;DHT22;34309;47.260;2.796;2023-12-20T15:10:12;17.20;21.90
48515;DHT22;34309;47.260;2.796;2023-12-20T15:12:46;17.20;22.40
48515;DHT22;34309;47.260;2.796;2023-12-20T15:15:22;17.20;21.90
48515;DHT22;34309;47.260;2.796;2023-12-20T15:17:51;17.20;21.90
48515;DHT22;34309;47.260;2.796;2023-12-20T15:20:24;17.20;21.90
48515;DHT22;34309;47.260;2.796;2023-12-20T15:22:58;17.20;21.80
48515;DHT22;34309;47.260;2.796;2023-12-20T15:25:37;17.20;22.00
48515;DHT22;34309;47.260;2.796;2023-12-20T15:28:11;17.20;22.00
48515;DHT22;34309;47.260;2.796;2023-12-20T15:30:46;17.10;21.90
48515;DHT22;34309;47.260;2.796;2023-12-20T15:33:20;17.20;22.00
48515;DHT22;34309;47.260;2.796;2023-12-20T15:35:54;17.10;21.90
48515;DHT22;34309;47.260;2.796;2023-12-20T15:38:23;17.20;21.90
48515;DHT22;34309;47.260;2.796;2023-12-20T15:40:58;17.10;22.10
48515;DHT22;34309;47.260;2.796;2023-12-20T15:43:32;17.10;22.00
48515;DHT22;34309;47.260;2.796;2023-12-20T15:46:09;17.10;21.90
48515;DHT22;34309;47.260;2.796;2023-12-20T15:48:44;17.10;22.00
48515;DHT22;34309;47.260;2.796;2023-12-20T15:51:20;17.10;22.10
48515;DHT22;34309;47.260;2.796;2023-12-20T15:53:55;17.10;22.10
48515;DHT22;34309;47.260;2.796;2023-12-20T15:56:30;17.10;22.10
48515;DHT22;34309;47.260;2.796;2023-12-20T15:59:03;17.10;22.10
48515;DHT22;34309;47.260;2.796;2023-12-20T16:01:39;17.00;22.10
48515;DHT22;34309;47.260;2.796;2023-12-20T16:04:13;17.00;22.10
48515;DHT22;34309;47.260;2.796;2023-12-20T16:06:47;17.00;22.20
48515;DHT22;34309;47.260;2.796;2023-12-20T16:09:21;17.00;22.10
48515;DHT22;34309;47.260;2.796;2023-12-20T16:11:57;17.00;22.20
48515;DHT22;34309;47.260;2.796;2023-12-20T16:14:31;17.00;22.30
48515;DHT22;34309;47.260;2.796;2023-12-20T16:17:06;16.90;22.30